Time;durP1;ratioP1;P1;durP2;ratioP2;P2;SDS_P1;SDS_P2;PMS_P1;PMS_P2;Temp;Humidity;BMP_temperature;BMP_pressure;BME280_temperature;BME280_humidity;BME280_pressure;Samples;Min_cycle;Max_cycle;Signal;HPM_P1;HPM_P2
2022/05/21 00:01:32;;;;;;;;;;;;;;;14.15;79.05;101968.91;5035935;28;19917;-61
2022/05/21 00:03:57;;;;;;;;;;;;;;;14.20;78.97;101970.56;5037111;28;19924;-63
2022/05/21 00:06:22;;;;;;;;;;;;;;;14.14;79.35;101969.84;5033449;28;20148;-62
2022/05/21 00:08:48;;;;;;;;;;;;;;;14.20;79.25;101965.25;5032716;28;19971;-64
2022/05/21 00:11:13;;;;;;;;;;;;;;;14.30;78.58;101964.03;5033661;28;19978;-67
2022/05/21 00:13:38;;;;;;;;;;;;;;;14.38;78.58;101967.34;5038523;28;19967;-65
2022/05/21 00:16:05;;;;;;;;;;;;;;;14.25;79.06;101960.69;5039083;28;19944;-65
2022/05/21 00:18:31;;;;;;;;;;;;;;;14.23;79.23;101960.72;5040977;28;19924;-62
2022/05/21 00:20:56;;;;;;;;;;;;;;;14.30;79.01;101966.69;5021861;28;20295;-62
2022/05/21 00:23:28;;;;;;;;;;;;;;;14.32;79.02;101970.19;5039554;28;19920;-63
2022/05/21 00:26:01;;;;;;;;;;;;;;;14.44;78.86;101965.38;5040019;28;20023;-64
2022/05/21 00:28:26;;;;;;;;;;;;;;;14.50;78.65;101965.19;5040483;28;19921;-63
2022/05/21 00:30:51;;;;;;;;;;;;;;;14.45;78.75;101965.34;5023546;28;19920;-63
2022/05/21 00:33:16;;;;;;;;;;;;;;;14.48;78.69;101967.91;5038452;28;20423;-63
2022/05/21 00:35:42;;;;;;;;;;;;;;;14.61;78.53;101979.00;5038309;28;19916;-63
2022/05/21 00:38:07;;;;;;;;;;;;;;;14.58;78.48;101980.88;5039136;28;19916;-63
2022/05/21 00:40:33;;;;;;;;;;;;;;;14.62;78.61;101979.84;5039086;28;19923;-63
2022/05/21 00:42:58;;;;;;;;;;;;;;;14.70;78.39;101974.28;5040873;28;19920;-64
2022/05/21 00:45:24;;;;;;;;;;;;;;;14.63;78.66;101986.91;5037413;28;19959;-64
2022/05/21 00:47:49;;;;;;;;;;;;;;;14.62;78.93;101977.19;5037410;28;19946;-67
2022/05/21 00:50:15;;;;;;;;;;;;;;;14.64;78.85;101967.41;5038627;28;19917;-63
2022/05/21 00:52:40;;;;;;;;;;;;;;;14.78;78.56;101967.84;5038803;28;19909;-65
2022/05/21 00:55:13;;;;;;;;;;;;;;;14.71;78.58;101968.94;5037184;28;20388;-63
2022/05/21 00:57:48;;;;;;;;;;;;;;;14.86;78.36;101972.00;5037524;28;19924;-64
2022/05/21 01:00:18;;;;;;;;;;;;;;;14.82;78.76;101976.56;5038382;28;20352;-65
2022/05/21 01:02:48;;;;;;;;;;;;;;;14.89;78.62;101983.41;5038902;28;20407;-64
2022/05/21 01:05:14;;;;;;;;;;;;;;;14.81;78.83;101980.13;5038921;28;19921;-63
2022/05/21 01:07:40;;;;;;;;;;;;;;;14.84;78.87;101974.72;5038895;28;19917;-64
2022/05/21 01:10:06;;;;;;;;;;;;;;;14.72;79.27;101975.13;5035084;28;19964;-64
2022/05/21 01:12:32;;;;;;;;;;;;;;;14.85;79.09;101978.25;5038470;28;20353;-62
2022/05/21 01:15:00;;;;;;;;;;;;;;;14.79;79.09;101968.72;5087500;22;19920;-63
2022/05/21 01:17:25;;;;;;;;;;;;;;;14.80;79.07;101980.19;5056152;28;20003;-62
2022/05/21 01:19:54;;;;;;;;;;;;;;;14.80;78.89;101983.72;5060089;28;20361;-64
2022/05/21 01:22:24;;;;;;;;;;;;;;;14.85;78.82;101981.78;5056369;28;20445;-65
2022/05/21 01:24:49;;;;;;;;;;;;;;;14.73;78.97;101979.50;5055533;28;19948;-62
2022/05/21 01:27:14;;;;;;;;;;;;;;;14.76;78.71;101976.75;5057828;28;20362;-64
2022/05/21 01:29:39;;;;;;;;;;;;;;;14.78;78.70;101985.56;5058736;28;20358;-64
2022/05/21 01:32:05;;;;;;;;;;;;;;;14.87;78.62;101981.72;5059381;28;19923;-65
2022/05/21 01:34:30;;;;;;;;;;;;;;;14.88;78.55;101978.16;5058850;28;19917;-64
2022/05/21 01:36:56;;;;;;;;;;;;;;;14.84;78.43;101980.03;5056721;28;20147;-65
2022/05/21 01:39:21;;;;;;;;;;;;;;;14.90;78.27;101985.13;5057183;28;19932;-64
2022/05/21 01:41:46;;;;;;;;;;;;;;;14.81;78.44;101985.44;5057132;28;20400;-64
2022/05/21 01:46:55;;;;;;;;;;;;;;;14.73;78.50;101990.09;5058925;28;19965;-63
2022/05/21 01:49:21;;;;;;;;;;;;;;;14.85;78.17;101986.22;5057218;28;19912;-63
2022/05/21 01:51:46;;;;;;;;;;;;;;;14.81;78.03;101985.44;5058360;28;19924;-65
2022/05/21 01:54:11;;;;;;;;;;;;;;;14.68;78.12;101981.41;5057487;28;19944;-62
2022/05/21 01:56:36;;;;;;;;;;;;;;;14.63;78.73;101986.91;5059358;28;20003;-63
2022/05/21 01:59:02;;;;;;;;;;;;;;;14.61;78.62;101983.41;5055544;28;19943;-61
2022/05/21 02:01:27;;;;;;;;;;;;;;;14.60;78.57;101976.38;5058511;28;19908;-65
2022/05/21 02:03:52;;;;;;;;;;;;;;;14.50;78.73;101981.09;5064723;28;19917;-65
2022/05/21 02:06:18;;;;;;;;;;;;;;;14.47;79.36;101986.50;5063928;28;19962;-64
2022/05/21 02:08:43;;;;;;;;;;;;;;;14.34;79.55;101980.75;5060538;28;19969;-64
2022/05/21 02:11:08;;;;;;;;;;;;;;;14.30;79.97;101979.94;5055661;28;19951;-63
2022/05/21 02:13:33;;;;;;;;;;;;;;;14.20;80.04;101982.03;5057426;28;20014;-63
2022/05/21 02:15:59;;;;;;;;;;;;;;;14.08;80.57;101982.41;5059501;28;20062;-64
2022/05/21 02:18:24;;;;;;;;;;;;;;;14.16;80.29;101988.34;5056924;28;19947;-63
2022/05/21 02:20:49;;;;;;;;;;;;;;;14.10;80.73;101981.47;5055902;28;20349;-64
2022/05/21 02:23:15;;;;;;;;;;;;;;;14.12;80.54;101992.03;5057386;28;19923;-62
2022/05/21 02:25:40;;;;;;;;;;;;;;;14.16;80.34;101993.66;5057228;28;19916;-62
2022/05/21 02:28:05;;;;;;;;;;;;;;;14.21;80.08;101985.56;5057512;28;20287;-61
2022/05/21 02:30:30;;;;;;;;;;;;;;;14.15;80.45;101981.31;5058310;28;19917;-66
2022/05/21 02:32:56;;;;;;;;;;;;;;;14.07;80.73;101986.84;5057788;28;19916;-65
2022/05/21 02:35:21;;;;;;;;;;;;;;;14.00;80.93;101991.44;5060692;28;19950;-64
2022/05/21 02:40:30;;;;;;;;;;;;;;;14.06;80.49;101993.03;5057979;28;19924;-64
2022/05/21 02:42:55;;;;;;;;;;;;;;;14.10;80.31;101993.84;5055526;28;19917;-63
2022/05/21 02:45:21;;;;;;;;;;;;;;;13.92;80.87;102001.44;5056557;28;20459;-64
2022/05/21 02:47:47;;;;;;;;;;;;;;;14.01;80.72;101997.63;5057030;28;19952;-63
2022/05/21 02:50:13;;;;;;;;;;;;;;;13.97;80.57;102001.28;5055834;28;20011;-63
2022/05/21 02:52:39;;;;;;;;;;;;;;;14.00;80.31;101995.91;5057666;28;19970;-63
2022/05/21 02:55:04;;;;;;;;;;;;;;;13.90;80.40;101997.94;5055667;28;19920;-63
2022/05/21 02:57:30;;;;;;;;;;;;;;;14.00;80.03;101995.91;5055760;28;19916;-63
2022/05/21 02:59:55;;;;;;;;;;;;;;;13.93;80.09;102000.50;5056523;28;19925;-63
2022/05/21 03:02:20;;;;;;;;;;;;;;;13.89;79.99;102004.16;5055200;28;20112;-64
2022/05/21 03:04:45;;;;;;;;;;;;;;;13.96;79.52;101995.13;5055746;28;19978;-64
2022/05/21 03:07:11;;;;;;;;;;;;;;;13.82;80.08;101992.84;5054886;28;19916;-63
2022/05/21 03:12:20;;;;;;;;;;;;;;;13.79;79.55;101989.44;5057876;28;19923;-63
2022/05/21 03:14:45;;;;;;;;;;;;;;;13.81;79.14;102004.38;5057180;28;19916;-65
2022/05/21 03:17:11;;;;;;;;;;;;;;;13.81;79.04;102012.31;5057017;28;19929;-64
2022/05/21 03:19:37;;;;;;;;;;;;;;;13.82;78.84;102003.47;5056229;28;19958;-66
2022/05/21 03:22:02;;;;;;;;;;;;;;;13.76;78.40;102012.47;5056230;28;19916;-64
2022/05/21 03:24:28;;;;;;;;;;;;;;;13.78;78.63;102007.13;5057266;28;20023;-63
2022/05/21 03:26:53;;;;;;;;;;;;;;;13.77;78.20;102014.22;5055547;28;19917;-63
2022/05/21 03:29:18;;;;;;;;;;;;;;;13.76;78.15;102011.59;5055797;28;19916;-64
2022/05/21 03:31:43;;;;;;;;;;;;;;;13.80;77.33;102002.66;5056456;28;19970;-64
2022/05/21 03:34:09;;;;;;;;;;;;;;;13.73;77.56;102006.41;5056196;28;19971;-63
2022/05/21 03:36:34;;;;;;;;;;;;;;;13.74;77.32;102009.00;5057512;28;19917;-63
2022/05/21 03:39:00;;;;;;;;;;;;;;;13.75;77.04;102026.63;5054838;28;19917;-64
2022/05/21 03:41:26;;;;;;;;;;;;;;;13.70;76.92;102014.44;5053774;28;19946;-66
2022/05/21 03:43:52;;;;;;;;;;;;;;;13.74;76.67;102013.41;5055829;28;20600;-65
2022/05/21 03:46:17;;;;;;;;;;;;;;;13.64;77.00;102013.66;5055837;28;19916;-64
2022/05/21 03:48:42;;;;;;;;;;;;;;;13.60;76.80;102017.31;5057085;28;20427;-63
2022/05/21 03:51:07;;;;;;;;;;;;;;;13.71;76.06;102021.44;5055658;28;19919;-63
2022/05/21 03:53:32;;;;;;;;;;;;;;;13.70;76.13;102022.38;5053762;28;19925;-64
2022/05/21 03:55:58;;;;;;;;;;;;;;;13.68;76.04;102018.88;5055212;28;19917;-64
2022/05/21 03:58:23;;;;;;;;;;;;;;;13.74;75.63;102019.59;5055592;28;19955;-62
2022/05/21 04:00:48;;;;;;;;;;;;;;;13.86;75.07;102018.38;5055201;28;20366;-64
2022/05/21 04:03:14;;;;;;;;;;;;;;;13.82;75.51;102027.31;5055142;28;19988;-63
2022/05/21 04:05:39;;;;;;;;;;;;;;;13.78;75.41;102025.66;5055081;28;19923;-64
2022/05/21 04:08:04;;;;;;;;;;;;;;;13.83;75.20;102023.75;5059185;28;19920;-65
2022/05/21 04:10:29;;;;;;;;;;;;;;;13.86;75.15;102017.50;5058351;28;20366;-66
2022/05/21 04:12:54;;;;;;;;;;;;;;;13.74;75.24;102019.59;5065188;28;20221;-65
2022/05/21 04:15:20;;;;;;;;;;;;;;;13.73;75.58;102027.59;5059504;28;19917;-64
2022/05/21 04:17:45;;;;;;;;;;;;;;;13.83;75.55;102029.06;5045521;28;19913;-65
2022/05/21 04:20:12;;;;;;;;;;;;;;;13.76;75.65;102031.00;5060952;28;19917;-64
2022/05/21 04:22:39;;;;;;;;;;;;;;;13.82;75.50;102037.91;5066115;28;19916;-66
2022/05/21 04:25:06;;;;;;;;;;;;;;;13.75;75.12;102046.94;5065157;28;19934;-66
2022/05/21 04:27:31;;;;;;;;;;;;;;;13.83;75.00;102058.19;5065910;28;19912;-64
2022/05/21 04:29:56;;;;;;;;;;;;;;;13.85;75.12;102050.22;5066510;28;19912;-65
2022/05/21 04:32:22;;;;;;;;;;;;;;;13.87;75.25;102049.25;5061251;28;20293;-64
2022/05/21 04:34:47;;;;;;;;;;;;;;;13.83;74.89;102047.59;5065488;28;20321;-63
2022/05/21 04:37:12;;;;;;;;;;;;;;;13.78;74.95;102046.84;5065004;28;20362;-64
2022/05/21 04:39:37;;;;;;;;;;;;;;;13.76;74.79;102052.19;5065140;28;19912;-65
2022/05/21 04:42:03;;;;;;;;;;;;;;;13.75;74.79;102046.94;5065223;28;19912;-64
2022/05/21 04:44:31;;;;;;;;;;;;;;;13.88;74.74;102053.63;5066311;28;19919;-63
2022/05/21 04:46:57;;;;;;;;;;;;;;;13.80;75.05;102054.75;5065932;28;19919;-64
2022/05/21 04:49:22;;;;;;;;;;;;;;;13.90;74.60;102057.09;5065115;28;19913;-66
2022/05/21 04:51:47;;;;;;;;;;;;;;;13.97;74.33;102063.09;5066291;28;19919;-65
2022/05/21 04:54:12;;;;;;;;;;;;;;;13.99;74.80;102057.75;5065893;28;19912;-64
2022/05/21 04:56:37;;;;;;;;;;;;;;;14.06;74.65;102061.94;5064896;28;20383;-66
2022/05/21 04:59:03;;;;;;;;;;;;;;;14.01;74.64;102061.22;5066956;28;20424;-64
2022/05/21 05:01:30;;;;;;;;;;;;;;;14.10;74.30;102057.44;5063906;28;20393;-63
2022/05/21 05:03:55;;;;;;;;;;;;;;;14.10;74.19;102068.91;5068783;28;19913;-64
2022/05/21 05:06:20;;;;;;;;;;;;;;;14.21;73.79;102078.34;5069466;28;19917;-65
2022/05/21 05:08:45;;;;;;;;;;;;;;;14.17;74.03;102069.59;5068186;28;19992;-64
2022/05/21 05:11:11;;;;;;;;;;;;;;;14.14;74.20;102081.16;5067804;28;20288;-62
2022/05/21 05:13:36;;;;;;;;;;;;;;;14.20;73.68;102082.75;5068178;28;20338;-65
2022/05/21 05:16:01;;;;;;;;;;;;;;;14.29;73.64;102078.97;5063426;28;19916;-63
2022/05/21 05:18:30;;;;;;;;;;;;;;;14.33;73.67;102090.38;5067656;28;19912;-65
2022/05/21 05:20:55;;;;;;;;;;;;;;;14.35;73.57;102081.44;5068089;28;19912;-63
2022/05/21 05:23:21;;;;;;;;;;;;;;;14.36;73.20;102077.03;5066016;28;19928;-65
2022/05/21 05:25:46;;;;;;;;;;;;;;;14.45;73.47;102079.38;5067155;28;19912;-65
2022/05/21 05:28:15;;;;;;;;;;;;;;;14.56;73.30;102092.31;5067768;28;19919;-65
2022/05/21 05:30:40;;;;;;;;;;;;;;;14.51;72.64;102095.09;5068633;28;19916;-66
2022/05/21 05:33:06;;;;;;;;;;;;;;;14.56;72.86;102096.72;5068731;28;19912;-64
2022/05/21 05:35:31;;;;;;;;;;;;;;;14.49;72.76;102112.84;5068033;28;20011;-64
2022/05/21 05:37:56;;;;;;;;;;;;;;;14.57;72.58;102099.34;5069260;28;19927;-62
2022/05/21 05:40:22;;;;;;;;;;;;;;;14.57;72.33;102104.63;5067701;28;19950;-65
2022/05/21 05:42:48;;;;;;;;;;;;;;;14.64;71.71;102105.34;5068808;28;20119;-63
2022/05/21 05:45:13;;;;;;;;;;;;;;;14.68;71.82;102095.47;5067598;28;20008;-64
2022/05/21 05:47:39;;;;;;;;;;;;;;;14.68;71.82;102100.78;5068758;28;20054;-65
2022/05/21 05:50:04;;;;;;;;;;;;;;;14.71;71.64;102098.03;5067933;28;20434;-63
2022/05/21 05:52:29;;;;;;;;;;;;;;;14.80;71.70;102097.78;5069249;28;19912;-65
2022/05/21 05:54:55;;;;;;;;;;;;;;;14.88;71.83;102103.75;5067871;28;19912;-65
2022/05/21 05:57:20;;;;;;;;;;;;;;;14.93;71.61;102106.22;5068156;28;20019;-65
2022/05/21 05:59:51;;;;;;;;;;;;;;;14.89;71.93;102104.59;5068642;28;19912;-65
2022/05/21 06:05:00;;;;;;;;;;;;;;;14.95;71.40;102099.09;5063042;28;20374;-64
2022/05/21 06:07:25;;;;;;;;;;;;;;;15.02;70.92;102105.09;5048424;28;20027;-64
2022/05/21 06:09:50;;;;;;;;;;;;;;;15.11;71.41;102106.56;5056571;28;19938;-64
2022/05/21 06:12:16;;;;;;;;;;;;;;;15.10;71.40;102108.34;5067879;28;20000;-65
2022/05/21 06:14:42;;;;;;;;;;;;;;;15.15;70.86;102111.69;5060371;28;19920;-65
2022/05/21 06:17:08;;;;;;;;;;;;;;;15.12;70.33;102125.09;5048374;28;19913;-64
2022/05/21 06:19:33;;;;;;;;;;;;;;;15.18;70.34;102117.84;5067513;28;19919;-64
2022/05/21 06:21:59;;;;;;;;;;;;;;;15.15;70.64;102124.97;5068148;28;19912;-71
2022/05/21 06:24:24;;;;;;;;;;;;;;;15.19;70.44;102127.53;5052455;28;19963;-65
2022/05/21 06:26:49;;;;;;;;;;;;;;;15.25;70.08;102125.56;5060609;28;19916;-65
2022/05/21 06:29:14;;;;;;;;;;;;;;;15.31;70.15;102131.56;5065990;28;19924;-64
2022/05/21 06:31:40;;;;;;;;;;;;;;;15.41;70.39;102141.84;5058516;28;19939;-65
2022/05/21 06:34:05;;;;;;;;;;;;;;;15.28;70.43;102136.06;5061297;28;19912;-65
2022/05/21 06:36:30;;;;;;;;;;;;;;;15.35;69.56;102147.34;5057512;28;20038;-62
2022/05/21 06:38:55;;;;;;;;;;;;;;;15.35;69.58;102144.69;5061363;28;20298;-64
2022/05/21 06:41:21;;;;;;;;;;;;;;;15.38;69.46;102149.91;5056835;28;20457;-64
2022/05/21 06:43:46;;;;;;;;;;;;;;;15.46;70.04;102148.78;5056301;28;19920;-64
2022/05/21 06:46:11;;;;;;;;;;;;;;;15.49;69.66;102156.66;5055011;28;19912;-64
2022/05/21 06:48:36;;;;;;;;;;;;;;;15.61;68.85;102155.34;5058008;28;19995;-64
2022/05/21 06:51:05;;;;;;;;;;;;;;;15.62;69.12;102160.63;5063839;28;19924;-64
2022/05/21 06:53:31;;;;;;;;;;;;;;;15.66;68.80;102158.75;5066813;28;19919;-65
2022/05/21 06:55:57;;;;;;;;;;;;;;;15.69;69.16;102163.06;5066068;28;19999;-62
2022/05/21 06:58:22;;;;;;;;;;;;;;;15.80;68.94;102171.53;5066446;28;19940;-64
2022/05/21 07:00:47;;;;;;;;;;;;;;;15.71;68.80;102177.19;5065808;28;19955;-65
2022/05/21 07:03:12;;;;;;;;;;;;;;;15.86;68.93;102175.78;5066429;28;19921;-64
2022/05/21 07:08:24;;;;;;;;;;;;;;;15.82;68.81;102190.06;5057296;28;20278;-63
2022/05/21 07:10:50;;;;;;;;;;;;;;;15.78;68.32;102184.03;5048826;28;20354;-61
2022/05/21 07:13:15;;;;;;;;;;;;;;;15.83;67.92;102174.09;5052494;28;19959;-65
2022/05/21 07:15:41;;;;;;;;;;;;;;;15.81;68.10;102175.94;5051475;28;19978;-62
2022/05/21 07:18:07;;;;;;;;;;;;;;;15.81;68.05;102178.59;5055233;28;19916;-63
2022/05/21 07:20:32;;;;;;;;;;;;;;;15.98;69.26;102180.69;5054614;28;20224;-69
2022/05/21 07:22:59;;;;;;;;;;;;;;;16.00;67.46;102177.97;5056307;28;19963;-67
2022/05/21 07:25:25;;;;;;;;;;;;;;;16.16;68.14;102194.22;5054727;28;19963;-67
2022/05/21 07:27:51;;;;;;;;;;;;;;;16.20;68.04;102193.22;5057686;28;20162;-64
2022/05/21 07:30:16;;;;;;;;;;;;;;;16.31;68.21;102192.81;5067661;28;19912;-65
2022/05/21 07:32:41;;;;;;;;;;;;;;;16.27;67.18;102199.19;5067288;28;19920;-64
2022/05/21 07:35:08;;;;;;;;;;;;;;;16.33;67.55;102206.94;5063894;28;19917;-65
2022/05/21 07:37:33;;;;;;;;;;;;;;;16.36;67.17;102211.25;5060023;28;19923;-65
2022/05/21 07:39:59;;;;;;;;;;;;;;;16.46;66.44;102222.47;5051255;28;19916;-65
2022/05/21 07:42:24;;;;;;;;;;;;;;;16.48;66.56;102209.94;5053582;28;19917;-65
2022/05/21 07:44:50;;;;;;;;;;;;;;;16.48;66.56;102229.44;5046392;28;19913;-66
2022/05/21 07:47:15;;;;;;;;;;;;;;;16.39;66.66;102209.38;5050300;28;20665;-63
2022/05/21 07:49:40;;;;;;;;;;;;;;;16.35;66.74;102210.41;5066458;28;19923;-63
2022/05/21 07:52:06;;;;;;;;;;;;;;;16.32;66.21;102215.84;5065093;28;20273;-62
2022/05/21 07:54:31;;;;;;;;;;;;;;;16.46;66.52;102235.75;5063134;28;20287;-61
2022/05/21 07:56:56;;;;;;;;;;;;;;;16.53;66.16;102226.63;5054618;28;19909;-62
2022/05/21 07:59:21;;;;;;;;;;;;;;;16.55;66.11;102228.28;5054661;28;20069;-62
2022/05/21 08:01:47;;;;;;;;;;;;;;;16.53;66.30;102226.63;5052678;28;19916;-62
2022/05/21 08:04:12;;;;;;;;;;;;;;;16.66;66.30;102225.25;5054628;28;19943;-63
2022/05/21 08:06:37;;;;;;;;;;;;;;;16.79;66.10;102225.63;5053099;28;19924;-64
2022/05/21 08:09:02;;;;;;;;;;;;;;;16.87;64.97;102238.66;5052571;28;19920;-64
2022/05/21 08:11:29;;;;;;;;;;;;;;;17.02;64.24;102233.66;5052383;28;20009;-63
2022/05/21 08:13:54;;;;;;;;;;;;;;;17.15;64.87;102228.72;5065569;28;20366;-64
2022/05/21 08:16:19;;;;;;;;;;;;;;;17.27;63.68;102238.91;5066119;28;20413;-63
2022/05/21 08:18:45;;;;;;;;;;;;;;;17.25;63.83;102232.75;5065121;28;19959;-64
2022/05/21 08:21:10;;;;;;;;;;;;;;;17.12;64.10;102243.03;5066046;28;19919;-62
2022/05/21 08:29:03;;;;;;;;;;;;;;;17.38;63.26;102238.50;5055141;28;19912;-65
2022/05/21 08:31:28;;;;;;;;;;;;;;;17.47;63.88;102231.03;5053424;28;19916;-64
2022/05/21 08:33:53;;;;;;;;;;;;;;;17.49;64.06;102246.03;5056277;28;19908;-64
2022/05/21 08:36:19;;;;;;;;;;;;;;;17.55;62.62;102247.59;5059306;28;20421;-63
2022/05/21 08:38:44;;;;;;;;;;;;;;;17.75;62.21;102241.41;5067113;28;20355;-61
2022/05/21 08:41:11;;;;;;;;;;;;;;;17.85;62.56;102235.69;5062758;28;19912;-65
2022/05/21 08:43:39;;;;;;;;;;;;;;;17.87;62.89;102250.69;5063401;28;19961;-65
2022/05/21 08:46:21;;;;;;;;;;;;;;;18.16;61.25;102245.06;5067064;28;19912;-64
2022/05/21 08:48:53;;;;;;;;;;;;;;;18.33;61.20;102249.63;5060311;28;19913;-63
2022/05/21 08:51:19;;;;;;;;;;;;;;;18.15;60.97;102238.84;5057528;28;19917;-64
2022/05/21 08:53:46;;;;;;;;;;;;;;;18.33;60.37;102243.47;5057357;28;20267;-64
2022/05/21 08:56:11;;;;;;;;;;;;;;;18.37;59.49;102242.38;5057254;28;19923;-66
2022/05/21 08:58:43;;;;;;;;;;;;;;;18.39;60.08;102246.72;5065085;28;19912;-62
2022/05/21 09:01:11;;;;;;;;;;;;;;;18.48;58.83;102248.09;5057687;28;20510;-64
2022/05/21 09:03:37;;;;;;;;;;;;;;;18.59;59.91;102247.63;5056341;28;19959;-64
2022/05/21 09:06:11;;;;;;;;;;;;;;;18.80;59.30;102247.56;5055614;28;20259;-64
2022/05/21 09:08:39;;;;;;;;;;;;;;;18.91;59.49;102247.91;5058074;28;20317;-64
2022/05/21 09:11:12;;;;;;;;;;;;;;;18.90;59.51;102237.34;5059077;28;20389;-64
2022/05/21 09:13:44;;;;;;;;;;;;;;;18.99;58.93;102238.69;5049433;28;19917;-63
2022/05/21 09:19:03;;;;;;;;;;;;;;;19.27;56.88;102248.06;5061573;28;20024;-64
2022/05/21 09:21:29;;;;;;;;;;;;;;;19.16;56.72;102236.09;5047901;28;20019;-64
2022/05/21 09:23:58;;;;;;;;;;;;;;;19.18;57.38;102250.25;5060074;28;19999;-63
2022/05/21 09:26:43;;;;;;;;;;;;;;;19.50;56.57;102243.41;5067730;28;19928;-64
2022/05/21 09:29:16;;;;;;;;;;;;;;;19.65;56.40;102245.31;5066996;28;19912;-64
2022/05/21 09:31:42;;;;;;;;;;;;;;;19.72;54.06;102245.00;5066323;28;19936;-64
2022/05/21 09:34:19;;;;;;;;;;;;;;;19.87;53.79;102241.53;5066932;28;19912;-65
2022/05/21 09:36:44;;;;;;;;;;;;;;;20.09;53.94;102235.13;5067470;28;19919;-63
2022/05/21 09:39:10;;;;;;;;;;;;;;;20.08;55.35;102238.75;5048412;28;20021;-65
2022/05/21 09:41:37;;;;;;;;;;;;;;;20.01;55.06;102238.19;5062297;28;19909;-64
2022/05/21 09:47:13;;;;;;;;;;;;;;;20.08;55.21;102244.94;5047209;28;19927;-65
2022/05/21 09:49:39;;;;;;;;;;;;;;;19.87;55.96;102252.22;5048393;28;19944;-64
2022/05/21 09:52:05;;;;;;;;;;;;;;;20.20;54.35;102258.66;5047027;28;19955;-64
2022/05/21 09:54:33;;;;;;;;;;;;;;;20.16;53.76;102244.53;5045725;28;19912;-66
2022/05/21 09:56:59;;;;;;;;;;;;;;;20.37;53.59;102241.69;5048209;28;19943;-63
2022/05/21 09:59:26;;;;;;;;;;;;;;;20.28;54.16;102243.03;5046552;28;19920;-64
2022/05/21 10:01:56;;;;;;;;;;;;;;;20.31;53.46;102250.03;5045048;28;19919;-64
2022/05/21 10:04:21;;;;;;;;;;;;;;;20.41;53.15;102253.09;5045841;28;20382;-62
2022/05/21 10:06:47;;;;;;;;;;;;;;;20.30;54.75;102259.88;5046867;28;19970;-64
2022/05/21 10:12:07;;;;;;;;;;;;;;;20.26;53.75;102262.81;5046793;28;20341;-63
2022/05/21 10:14:33;;;;;;;;;;;;;;;20.20;54.14;102267.53;5045378;28;19917;-63
2022/05/21 10:16:59;;;;;;;;;;;;;;;20.33;53.21;102265.09;5046402;28;19966;-64
2022/05/21 10:19:31;;;;;;;;;;;;;;;20.43;53.99;102262.75;5046289;28;20432;-63
2022/05/21 10:22:02;;;;;;;;;;;;;;;20.37;54.19;102264.88;5047300;28;20410;-64
2022/05/21 10:24:33;;;;;;;;;;;;;;;20.49;53.61;102274.94;5041583;28;19924;-65
2022/05/21 10:27:02;;;;;;;;;;;;;;;20.57;52.21;102283.47;5046881;28;19912;-63
2022/05/21 10:29:39;;;;;;;;;;;;;;;20.63;53.39;102279.56;5047322;28;19912;-66
2022/05/21 10:32:08;;;;;;;;;;;;;;;20.74;52.96;102280.81;5046017;28;20337;-65
2022/05/21 10:34:42;;;;;;;;;;;;;;;20.74;52.58;102270.94;5046760;28;19909;-63
2022/05/21 10:37:08;;;;;;;;;;;;;;;20.87;52.36;102289.91;5045341;28;20374;-64
2022/05/21 10:39:47;;;;;;;;;;;;;;;20.73;50.93;102273.69;5045185;28;19987;-64
2022/05/21 10:42:19;;;;;;;;;;;;;;;20.77;52.26;102280.63;5043620;28;19912;-63
2022/05/21 10:44:52;;;;;;;;;;;;;;;20.82;51.60;102270.53;5046553;28;19987;-64
2022/05/21 10:47:35;;;;;;;;;;;;;;;21.01;51.27;102272.22;5043401;28;19916;-63
2022/05/21 10:50:15;;;;;;;;;;;;;;;21.01;51.65;102269.56;5047312;28;19912;-64
2022/05/21 10:52:56;;;;;;;;;;;;;;;20.60;52.85;102271.72;5066286;28;19923;-63
2022/05/21 10:55:21;;;;;;;;;;;;;;;20.75;51.05;102286.09;5064388;28;20711;-62
2022/05/21 10:57:50;;;;;;;;;;;;;;;20.91;53.09;102280.78;5064569;28;19912;-64
2022/05/21 11:00:20;;;;;;;;;;;;;;;21.04;51.06;102272.06;5047698;28;19912;-66
2022/05/21 11:02:48;;;;;;;;;;;;;;;21.01;50.74;102267.72;5064921;28;19962;-64
2022/05/21 11:05:13;;;;;;;;;;;;;;;20.69;52.10;102281.06;5066184;28;20103;-64
2022/05/21 11:07:46;;;;;;;;;;;;;;;20.56;53.34;102275.50;5066517;28;20019;-62
2022/05/21 11:10:25;;;;;;;;;;;;;;;20.51;52.28;102285.59;5060449;28;19916;-63
2022/05/21 11:12:53;;;;;;;;;;;;;;;20.40;51.92;102286.16;5064871;28;20133;-63
2022/05/21 11:15:39;;;;;;;;;;;;;;;20.27;53.48;102278.78;5064301;28;20007;-63
2022/05/21 11:18:13;;;;;;;;;;;;;;;20.30;52.58;102285.78;5064866;28;19924;-63
2022/05/21 11:20:38;;;;;;;;;;;;;;;20.26;53.80;102281.53;5064483;28;20348;-63
2022/05/21 11:23:04;;;;;;;;;;;;;;;20.47;53.84;102282.22;5064244;28;20003;-66
2022/05/21 11:25:47;;;;;;;;;;;;;;;20.36;53.69;102281.91;5065682;28;19912;-64
2022/05/21 11:28:32;;;;;;;;;;;;;;;20.56;52.12;102291.56;5065704;28;19964;-63
2022/05/21 11:31:01;;;;;;;;;;;;;;;20.75;50.96;102285.19;5066561;28;19965;-64
2022/05/21 11:39:13;;;;;;;;;;;;;;;20.73;51.01;102279.06;5010669;28;19987;-67
2022/05/21 11:42:14;;;;;;;;;;;;;;;20.93;49.64;102291.41;5056719;28;19912;-63
2022/05/21 11:44:55;;;;;;;;;;;;;;;20.67;50.27;102286.50;5042693;28;19920;-62
2022/05/21 11:47:21;;;;;;;;;;;;;;;20.43;51.30;102276.16;5061743;28;20459;-62
2022/05/21 11:49:48;;;;;;;;;;;;;;;20.63;51.61;102284.94;5065804;28;19904;-63
2022/05/21 11:52:26;;;;;;;;;;;;;;;20.80;51.45;102280.47;5064227;28;19913;-64
2022/05/21 11:54:51;;;;;;;;;;;;;;;20.85;50.88;102281.06;5065109;28;19912;-63
2022/05/21 11:57:35;;;;;;;;;;;;;;;20.63;51.33;102284.94;5064905;28;20207;-63
2022/05/21 12:00:03;;;;;;;;;;;;;;;20.90;50.71;102286.22;5066217;28;19908;-63
2022/05/21 12:02:29;;;;;;;;;;;;;;;21.32;49.41;102282.09;5057106;28;19921;-65
2022/05/21 12:04:58;;;;;;;;;;;;;;;21.70;48.66;102279.94;5053797;28;19913;-62
2022/05/21 12:07:43;;;;;;;;;;;;;;;22.09;47.57;102281.25;5058405;28;19919;-63
2022/05/21 12:10:10;;;;;;;;;;;;;;;21.63;48.35;102300.03;5057501;28;19938;-61
2022/05/21 12:12:35;;;;;;;;;;;;;;;21.57;47.98;102295.88;5068527;28;19935;-63
2022/05/21 12:15:28;;;;;;;;;;;;;;;21.31;49.19;102288.38;5066239;28;19916;-64
2022/05/21 12:17:53;;;;;;;;;;;;;;;21.71;48.69;102295.09;5059919;28;20460;-63
2022/05/21 12:20:37;;;;;;;;;;;;;;;21.40;49.24;102302.22;5057870;28;19987;-63
2022/05/21 12:23:02;;;;;;;;;;;;;;;21.63;48.95;102290.16;5059305;28;20009;-63
2022/05/21 12:25:42;;;;;;;;;;;;;;;21.69;47.75;102287.13;5061718;28;19956;-64
2022/05/21 12:28:08;;;;;;;;;;;;;;;22.37;47.35;102283.19;5068455;28;20397;-62
2022/05/21 12:30:34;;;;;;;;;;;;;;;23.00;45.81;102280.22;5068767;28;19904;-63
2022/05/21 12:32:59;;;;;;;;;;;;;;;22.84;44.13;102287.44;5070254;28;19958;-63
2022/05/21 12:35:30;;;;;;;;;;;;;;;23.28;44.07;102278.41;5069034;28;19905;-63
2022/05/21 12:38:16;;;;;;;;;;;;;;;23.33;44.18;102265.56;5069441;28;19912;-62
2022/05/21 12:40:46;;;;;;;;;;;;;;;23.76;42.80;102264.53;5068698;28;19904;-63
2022/05/21 12:43:13;;;;;;;;;;;;;;;24.72;41.00;102262.38;5067865;28;20197;-63
2022/05/21 12:45:43;;;;;;;;;;;;;;;25.19;39.32;102255.50;5067556;28;19912;-64
2022/05/21 12:48:17;;;;;;;;;;;;;;;25.72;38.55;102265.94;5067914;28;20381;-62
2022/05/21 12:50:49;;;;;;;;;;;;;;;26.12;36.75;102272.78;5068087;28;19912;-63
2022/05/21 12:53:16;;;;;;;;;;;;;;;26.07;37.07;102260.63;5067700;28;19912;-62
2022/05/21 12:55:42;;;;;;;;;;;;;;;26.16;35.76;102268.00;5069033;28;19917;-63
2022/05/21 12:58:08;;;;;;;;;;;;;;;26.33;35.15;102257.72;5068105;28;19912;-63
2022/05/21 13:00:33;;;;;;;;;;;;;;;26.29;35.70;102289.53;5069067;28;19927;-61
2022/05/21 13:03:04;;;;;;;;;;;;;;;25.48;36.06;102271.31;5069345;28;20004;-64
2022/05/21 13:05:30;;;;;;;;;;;;;;;24.64;38.66;102288.16;5068739;28;19916;-63
2022/05/21 13:07:56;;;;;;;;;;;;;;;24.19;39.10;102276.00;5067262;28;19923;-63
2022/05/21 13:10:22;;;;;;;;;;;;;;;23.31;41.21;102280.91;5050077;28;20007;-62